sensor_id;sensor_type;location;lat;lon;timestamp;P1;durP1;ratioP1;P2;durP2;ratioP2
22468;SDS011;11401;50.792;4.352;2023-08-17T00:01:58;2.97;;;2.50;;
22468;SDS011;11401;50.792;4.352;2023-08-17T00:04:25;2.33;;;2.22;;
22468;SDS011;11401;50.792;4.352;2023-08-17T00:06:52;2.90;;;2.03;;
22468;SDS011;11401;50.792;4.352;2023-08-17T00:09:19;2.58;;;1.80;;
22468;SDS011;11401;50.792;4.352;2023-08-17T00:11:46;3.60;;;2.20;;
22468;SDS011;11401;50.792;4.352;2023-08-17T00:14:14;3.15;;;2.47;;
22468;SDS011;11401;50.792;4.352;2023-08-17T00:16:40;3.55;;;1.90;;
22468;SDS011;11401;50.792;4.352;2023-08-17T00:19:08;2.83;;;2.28;;
22468;SDS011;11401;50.792;4.352;2023-08-17T00:21:35;4.95;;;2.17;;
22468;SDS011;11401;50.792;4.352;2023-08-17T00:24:03;2.67;;;1.95;;
22468;SDS011;11401;50.792;4.352;2023-08-17T00:26:30;3.72;;;2.05;;
22468;SDS011;11401;50.792;4.352;2023-08-17T00:28:57;3.20;;;1.88;;
22468;SDS011;11401;50.792;4.352;2023-08-17T00:31:24;3.72;;;2.05;;
22468;SDS011;11401;50.792;4.352;2023-08-17T00:33:51;4.57;;;2.42;;
22468;SDS011;11401;50.792;4.352;2023-08-17T00:36:19;3.47;;;2.40;;
22468;SDS011;11401;50.792;4.352;2023-08-17T00:38:46;6.43;;;2.65;;
22468;SDS011;11401;50.792;4.352;2023-08-17T00:41:13;3.25;;;2.08;;
22468;SDS011;11401;50.792;4.352;2023-08-17T00:43:40;4.07;;;2.22;;
22468;SDS011;11401;50.792;4.352;2023-08-17T00:46:07;3.70;;;2.10;;
22468;SDS011;11401;50.792;4.352;2023-08-17T00:48:34;2.20;;;2.00;;
22468;SDS011;11401;50.792;4.352;2023-08-17T00:51:01;4.45;;;1.95;;
22468;SDS011;11401;50.792;4.352;2023-08-17T00:53:29;4.03;;;2.47;;
22468;SDS011;11401;50.792;4.352;2023-08-17T00:55:59;2.58;;;2.28;;
22468;SDS011;11401;50.792;4.352;2023-08-17T00:58:27;2.47;;;1.95;;
22468;SDS011;11401;50.792;4.352;2023-08-17T01:00:55;2.67;;;1.80;;
22468;SDS011;11401;50.792;4.352;2023-08-17T01:03:22;2.88;;;2.33;;
22468;SDS011;11401;50.792;4.352;2023-08-17T01:05:50;2.97;;;2.15;;
22468;SDS011;11401;50.792;4.352;2023-08-17T01:08:17;3.60;;;2.20;;
22468;SDS011;11401;50.792;4.352;2023-08-17T01:13:24;3.63;;;1.85;;
22468;SDS011;11401;50.792;4.352;2023-08-17T01:15:57;4.45;;;2.20;;
22468;SDS011;11401;50.792;4.352;2023-08-17T01:18:29;3.08;;;2.47;;
22468;SDS011;11401;50.792;4.352;2023-08-17T01:21:01;4.25;;;2.45;;
22468;SDS011;11401;50.792;4.352;2023-08-17T01:23:32;3.85;;;2.38;;
22468;SDS011;11401;50.792;4.352;2023-08-17T01:25:59;3.15;;;2.47;;
22468;SDS011;11401;50.792;4.352;2023-08-17T01:28:27;2.40;;;2.17;;
22468;SDS011;11401;50.792;4.352;2023-08-17T01:31:03;3.03;;;2.50;;
22468;SDS011;11401;50.792;4.352;2023-08-17T01:33:40;2.22;;;2.05;;
22468;SDS011;11401;50.792;4.352;2023-08-17T01:36:22;2.33;;;2.03;;
22468;SDS011;11401;50.792;4.352;2023-08-17T01:38:54;4.93;;;2.60;;
22468;SDS011;11401;50.792;4.352;2023-08-17T01:41:23;2.50;;;2.30;;
22468;SDS011;11401;50.792;4.352;2023-08-17T01:43:51;3.63;;;2.33;;
22468;SDS011;11401;50.792;4.352;2023-08-17T01:46:21;3.30;;;2.40;;
22468;SDS011;11401;50.792;4.352;2023-08-17T01:48:48;4.00;;;2.13;;
22468;SDS011;11401;50.792;4.352;2023-08-17T01:51:18;3.38;;;2.60;;
22468;SDS011;11401;50.792;4.352;2023-08-17T01:53:46;4.00;;;2.33;;
22468;SDS011;11401;50.792;4.352;2023-08-17T01:56:13;2.72;;;2.25;;
22468;SDS011;11401;50.792;4.352;2023-08-17T01:58:40;3.03;;;2.65;;
22468;SDS011;11401;50.792;4.352;2023-08-17T02:01:08;4.80;;;2.25;;
22468;SDS011;11401;50.792;4.352;2023-08-17T02:03:35;3.88;;;2.78;;
22468;SDS011;11401;50.792;4.352;2023-08-17T02:06:02;2.60;;;2.40;;
22468;SDS011;11401;50.792;4.352;2023-08-17T02:08:29;2.95;;;1.90;;
22468;SDS011;11401;50.792;4.352;2023-08-17T02:10:56;4.80;;;2.55;;
22468;SDS011;11401;50.792;4.352;2023-08-17T02:13:23;3.70;;;2.72;;
22468;SDS011;11401;50.792;4.352;2023-08-17T02:15:51;4.15;;;2.97;;
22468;SDS011;11401;50.792;4.352;2023-08-17T02:18:18;3.58;;;2.75;;
22468;SDS011;11401;50.792;4.352;2023-08-17T02:20:45;2.60;;;2.28;;
22468;SDS011;11401;50.792;4.352;2023-08-17T02:23:12;2.88;;;2.45;;
22468;SDS011;11401;50.792;4.352;2023-08-17T02:25:39;4.00;;;2.47;;
22468;SDS011;11401;50.792;4.352;2023-08-17T02:28:07;2.83;;;2.53;;
22468;SDS011;11401;50.792;4.352;2023-08-17T02:30:34;4.15;;;2.33;;
22468;SDS011;11401;50.792;4.352;2023-08-17T02:33:01;5.07;;;3.00;;
22468;SDS011;11401;50.792;4.352;2023-08-17T02:35:28;2.60;;;2.10;;
22468;SDS011;11401;50.792;4.352;2023-08-17T02:37:56;5.30;;;2.70;;
22468;SDS011;11401;50.792;4.352;2023-08-17T02:40:23;3.95;;;2.53;;
22468;SDS011;11401;50.792;4.352;2023-08-17T02:42:50;4.15;;;2.22;;
22468;SDS011;11401;50.792;4.352;2023-08-17T02:45:17;2.20;;;2.03;;
22468;SDS011;11401;50.792;4.352;2023-08-17T02:47:44;4.07;;;2.70;;
22468;SDS011;11401;50.792;4.352;2023-08-17T02:50:13;3.65;;;2.50;;
22468;SDS011;11401;50.792;4.352;2023-08-17T02:52:41;2.63;;;2.30;;
22468;SDS011;11401;50.792;4.352;2023-08-17T02:55:08;4.45;;;2.50;;
22468;SDS011;11401;50.792;4.352;2023-08-17T02:57:35;2.50;;;1.90;;
22468;SDS011;11401;50.792;4.352;2023-08-17T03:00:03;2.53;;;2.08;;
22468;SDS011;11401;50.792;4.352;2023-08-17T03:02:32;3.33;;;2.00;;
22468;SDS011;11401;50.792;4.352;2023-08-17T03:05:01;3.05;;;2.20;;
22468;SDS011;11401;50.792;4.352;2023-08-17T03:07:29;3.53;;;2.33;;
22468;SDS011;11401;50.792;4.352;2023-08-17T03:09:56;2.63;;;2.17;;
22468;SDS011;11401;50.792;4.352;2023-08-17T03:12:23;4.57;;;2.13;;
22468;SDS011;11401;50.792;4.352;2023-08-17T03:14:50;4.55;;;2.20;;
22468;SDS011;11401;50.792;4.352;2023-08-17T03:17:17;4.57;;;2.50;;
22468;SDS011;11401;50.792;4.352;2023-08-17T03:19:44;2.88;;;2.10;;
22468;SDS011;11401;50.792;4.352;2023-08-17T03:22:11;3.85;;;2.22;;
22468;SDS011;11401;50.792;4.352;2023-08-17T03:24:38;1.83;;;1.73;;
22468;SDS011;11401;50.792;4.352;2023-08-17T03:27:05;4.13;;;2.88;;
22468;SDS011;11401;50.792;4.352;2023-08-17T03:29:33;4.22;;;2.00;;
22468;SDS011;11401;50.792;4.352;2023-08-17T03:32:00;2.40;;;2.20;;
22468;SDS011;11401;50.792;4.352;2023-08-17T03:34:27;2.42;;;1.90;;
22468;SDS011;11401;50.792;4.352;2023-08-17T03:36:54;4.65;;;2.35;;
22468;SDS011;11401;50.792;4.352;2023-08-17T03:39:22;5.57;;;2.38;;
22468;SDS011;11401;50.792;4.352;2023-08-17T03:41:49;3.85;;;2.33;;
22468;SDS011;11401;50.792;4.352;2023-08-17T03:44:16;2.25;;;1.98;;
22468;SDS011;11401;50.792;4.352;2023-08-17T03:46:43;2.78;;;2.58;;
22468;SDS011;11401;50.792;4.352;2023-08-17T03:49:10;3.95;;;2.25;;
22468;SDS011;11401;50.792;4.352;2023-08-17T03:51:37;2.50;;;2.20;;
22468;SDS011;11401;50.792;4.352;2023-08-17T03:54:04;4.45;;;2.53;;
22468;SDS011;11401;50.792;4.352;2023-08-17T03:56:32;3.70;;;2.15;;
22468;SDS011;11401;50.792;4.352;2023-08-17T03:58:59;4.35;;;2.40;;
22468;SDS011;11401;50.792;4.352;2023-08-17T04:01:26;2.60;;;2.05;;
22468;SDS011;11401;50.792;4.352;2023-08-17T04:03:54;4.45;;;1.80;;
22468;SDS011;11401;50.792;4.352;2023-08-17T04:06:21;2.65;;;2.03;;
22468;SDS011;11401;50.792;4.352;2023-08-17T04:08:48;5.05;;;1.90;;
22468;SDS011;11401;50.792;4.352;2023-08-17T04:11:15;5.10;;;2.55;;
22468;SDS011;11401;50.792;4.352;2023-08-17T04:13:42;3.80;;;2.50;;
22468;SDS011;11401;50.792;4.352;2023-08-17T04:16:09;2.63;;;2.20;;
22468;SDS011;11401;50.792;4.352;2023-08-17T04:18:37;5.63;;;2.30;;
22468;SDS011;11401;50.792;4.352;2023-08-17T04:21:04;2.85;;;2.20;;
22468;SDS011;11401;50.792;4.352;2023-08-17T04:23:31;6.03;;;2.05;;
22468;SDS011;11401;50.792;4.352;2023-08-17T04:25:58;2.33;;;2.05;;
22468;SDS011;11401;50.792;4.352;2023-08-17T04:28:27;4.05;;;2.60;;
22468;SDS011;11401;50.792;4.352;2023-08-17T04:30:55;2.90;;;2.17;;
22468;SDS011;11401;50.792;4.352;2023-08-17T04:33:22;2.58;;;1.63;;
22468;SDS011;11401;50.792;4.352;2023-08-17T04:35:49;4.20;;;2.33;;
22468;SDS011;11401;50.792;4.352;2023-08-17T04:38:16;3.05;;;2.33;;
22468;SDS011;11401;50.792;4.352;2023-08-17T04:40:44;6.00;;;2.80;;
22468;SDS011;11401;50.792;4.352;2023-08-17T04:43:13;3.83;;;2.53;;
22468;SDS011;11401;50.792;4.352;2023-08-17T04:45:40;5.47;;;2.05;;
22468;SDS011;11401;50.792;4.352;2023-08-17T04:48:07;3.90;;;1.83;;
22468;SDS011;11401;50.792;4.352;2023-08-17T04:50:35;5.53;;;2.72;;
22468;SDS011;11401;50.792;4.352;2023-08-17T04:53:02;5.00;;;2.42;;
22468;SDS011;11401;50.792;4.352;2023-08-17T04:55:30;5.18;;;2.20;;
22468;SDS011;11401;50.792;4.352;2023-08-17T04:57:58;6.38;;;2.22;;
22468;SDS011;11401;50.792;4.352;2023-08-17T05:00:28;3.22;;;2.47;;
22468;SDS011;11401;50.792;4.352;2023-08-17T05:02:56;6.00;;;2.30;;
22468;SDS011;11401;50.792;4.352;2023-08-17T05:05:30;4.32;;;2.33;;
22468;SDS011;11401;50.792;4.352;2023-08-17T05:07:59;3.53;;;2.33;;
22468;SDS011;11401;50.792;4.352;2023-08-17T05:10:26;3.65;;;1.95;;
22468;SDS011;11401;50.792;4.352;2023-08-17T05:12:54;2.30;;;2.10;;
22468;SDS011;11401;50.792;4.352;2023-08-17T05:15:21;2.80;;;2.35;;
22468;SDS011;11401;50.792;4.352;2023-08-17T05:17:49;3.80;;;2.28;;
22468;SDS011;11401;50.792;4.352;2023-08-17T05:20:16;2.95;;;1.95;;
22468;SDS011;11401;50.792;4.352;2023-08-17T05:22:43;4.28;;;2.20;;
22468;SDS011;11401;50.792;4.352;2023-08-17T05:25:10;4.72;;;2.40;;
22468;SDS011;11401;50.792;4.352;2023-08-17T05:27:39;2.95;;;2.33;;
22468;SDS011;11401;50.792;4.352;2023-08-17T05:30:06;3.67;;;2.50;;
22468;SDS011;11401;50.792;4.352;2023-08-17T05:32:34;3.72;;;2.65;;
22468;SDS011;11401;50.792;4.352;2023-08-17T05:35:01;5.60;;;3.17;;
22468;SDS011;11401;50.792;4.352;2023-08-17T05:37:28;7.97;;;2.42;;
22468;SDS011;11401;50.792;4.352;2023-08-17T05:39:56;3.20;;;2.25;;
22468;SDS011;11401;50.792;4.352;2023-08-17T05:42:24;3.92;;;2.00;;
22468;SDS011;11401;50.792;4.352;2023-08-17T05:44:51;2.42;;;1.92;;
22468;SDS011;11401;50.792;4.352;2023-08-17T05:47:18;3.65;;;2.22;;
22468;SDS011;11401;50.792;4.352;2023-08-17T05:49:45;2.63;;;1.92;;
22468;SDS011;11401;50.792;4.352;2023-08-17T05:52:12;3.28;;;2.53;;
22468;SDS011;11401;50.792;4.352;2023-08-17T05:54:40;2.80;;;2.30;;
22468;SDS011;11401;50.792;4.352;2023-08-17T05:57:07;5.40;;;2.35;;
22468;SDS011;11401;50.792;4.352;2023-08-17T05:59:34;2.92;;;2.25;;
22468;SDS011;11401;50.792;4.352;2023-08-17T06:02:01;5.72;;;2.50;;
22468;SDS011;11401;50.792;4.352;2023-08-17T06:04:28;5.53;;;2.45;;
22468;SDS011;11401;50.792;4.352;2023-08-17T06:06:55;4.05;;;2.78;;
22468;SDS011;11401;50.792;4.352;2023-08-17T06:09:22;7.53;;;1.98;;
22468;SDS011;11401;50.792;4.352;2023-08-17T06:11:49;3.75;;;2.10;;
22468;SDS011;11401;50.792;4.352;2023-08-17T06:14:16;3.05;;;1.83;;
22468;SDS011;11401;50.792;4.352;2023-08-17T06:16:43;4.45;;;2.33;;
22468;SDS011;11401;50.792;4.352;2023-08-17T06:19:11;3.20;;;2.22;;
22468;SDS011;11401;50.792;4.352;2023-08-17T06:21:38;8.60;;;3.28;;
22468;SDS011;11401;50.792;4.352;2023-08-17T06:24:05;3.72;;;2.08;;
22468;SDS011;11401;50.792;4.352;2023-08-17T06:26:32;8.20;;;2.75;;
22468;SDS011;11401;50.792;4.352;2023-08-17T06:28:59;5.80;;;2.30;;
22468;SDS011;11401;50.792;4.352;2023-08-17T06:31:29;4.75;;;2.25;;
22468;SDS011;11401;50.792;4.352;2023-08-17T06:33:58;6.25;;;2.60;;
22468;SDS011;11401;50.792;4.352;2023-08-17T06:36:25;5.30;;;3.08;;
22468;SDS011;11401;50.792;4.352;2023-08-17T06:38:52;5.13;;;3.50;;
22468;SDS011;11401;50.792;4.352;2023-08-17T06:41:19;4.85;;;2.65;;
22468;SDS011;11401;50.792;4.352;2023-08-17T06:43:46;4.78;;;2.83;;
22468;SDS011;11401;50.792;4.352;2023-08-17T06:46:13;6.22;;;3.22;;
22468;SDS011;11401;50.792;4.352;2023-08-17T06:48:40;5.88;;;2.75;;
22468;SDS011;11401;50.792;4.352;2023-08-17T06:51:09;4.90;;;3.30;;
22468;SDS011;11401;50.792;4.352;2023-08-17T06:53:36;5.93;;;2.83;;
22468;SDS011;11401;50.792;4.352;2023-08-17T06:56:03;5.47;;;3.40;;
22468;SDS011;11401;50.792;4.352;2023-08-17T06:58:30;5.68;;;2.90;;
22468;SDS011;11401;50.792;4.352;2023-08-17T07:00:57;7.75;;;2.85;;
22468;SDS011;11401;50.792;4.352;2023-08-17T07:03:24;7.57;;;3.00;;
22468;SDS011;11401;50.792;4.352;2023-08-17T07:05:51;6.68;;;3.30;;
22468;SDS011;11401;50.792;4.352;2023-08-17T07:08:18;5.53;;;3.15;;
22468;SDS011;11401;50.792;4.352;2023-08-17T07:10:45;5.38;;;2.97;;
22468;SDS011;11401;50.792;4.352;2023-08-17T07:13:12;6.22;;;3.60;;
22468;SDS011;11401;50.792;4.352;2023-08-17T07:15:39;8.02;;;3.53;;
22468;SDS011;11401;50.792;4.352;2023-08-17T07:18:07;5.18;;;3.65;;
22468;SDS011;11401;50.792;4.352;2023-08-17T07:20:34;7.53;;;3.30;;
22468;SDS011;11401;50.792;4.352;2023-08-17T07:23:01;7.07;;;3.55;;
22468;SDS011;11401;50.792;4.352;2023-08-17T07:25:29;7.65;;;3.38;;
22468;SDS011;11401;50.792;4.352;2023-08-17T07:27:56;6.68;;;3.97;;
22468;SDS011;11401;50.792;4.352;2023-08-17T07:30:23;6.43;;;3.50;;
22468;SDS011;11401;50.792;4.352;2023-08-17T07:32:50;9.68;;;3.28;;
22468;SDS011;11401;50.792;4.352;2023-08-17T07:35:17;4.22;;;3.28;;
22468;SDS011;11401;50.792;4.352;2023-08-17T07:37:45;8.45;;;4.18;;
22468;SDS011;11401;50.792;4.352;2023-08-17T07:40:32;4.72;;;3.35;;
22468;SDS011;11401;50.792;4.352;2023-08-17T07:43:00;6.18;;;3.55;;
22468;SDS011;11401;50.792;4.352;2023-08-17T07:45:28;6.88;;;3.42;;
22468;SDS011;11401;50.792;4.352;2023-08-17T07:47:55;9.05;;;3.80;;
22468;SDS011;11401;50.792;4.352;2023-08-17T07:50:22;7.28;;;4.00;;
22468;SDS011;11401;50.792;4.352;2023-08-17T07:52:49;8.40;;;4.15;;
22468;SDS011;11401;50.792;4.352;2023-08-17T07:55:16;7.72;;;4.07;;
22468;SDS011;11401;50.792;4.352;2023-08-17T07:57:43;9.05;;;4.05;;
22468;SDS011;11401;50.792;4.352;2023-08-17T08:00:11;6.43;;;3.40;;
22468;SDS011;11401;50.792;4.352;2023-08-17T08:02:38;4.30;;;3.88;;
22468;SDS011;11401;50.792;4.352;2023-08-17T08:05:05;6.20;;;3.85;;
22468;SDS011;11401;50.792;4.352;2023-08-17T08:07:33;7.60;;;2.83;;
22468;SDS011;11401;50.792;4.352;2023-08-17T08:10:00;5.57;;;3.90;;
22468;SDS011;11401;50.792;4.352;2023-08-17T08:12:27;6.55;;;3.30;;
22468;SDS011;11401;50.792;4.352;2023-08-17T08:14:54;7.57;;;4.95;;
22468;SDS011;11401;50.792;4.352;2023-08-17T08:17:21;8.68;;;4.20;;
22468;SDS011;11401;50.792;4.352;2023-08-17T08:19:48;10.10;;;4.97;;
22468;SDS011;11401;50.792;4.352;2023-08-17T08:22:17;8.73;;;6.00;;
22468;SDS011;11401;50.792;4.352;2023-08-17T08:24:44;9.10;;;5.38;;
22468;SDS011;11401;50.792;4.352;2023-08-17T08:27:11;8.75;;;4.72;;
22468;SDS011;11401;50.792;4.352;2023-08-17T08:29:38;9.35;;;4.80;;
22468;SDS011;11401;50.792;4.352;2023-08-17T08:32:06;10.55;;;5.28;;
22468;SDS011;11401;50.792;4.352;2023-08-17T08:34:33;14.18;;;4.78;;
22468;SDS011;11401;50.792;4.352;2023-08-17T08:37:00;9.90;;;5.70;;
22468;SDS011;11401;50.792;4.352;2023-08-17T08:39:28;9.95;;;5.07;;
22468;SDS011;11401;50.792;4.352;2023-08-17T08:41:55;6.18;;;5.30;;
22468;SDS011;11401;50.792;4.352;2023-08-17T08:44:22;5.25;;;3.38;;
22468;SDS011;11401;50.792;4.352;2023-08-17T08:46:50;8.30;;;4.97;;
22468;SDS011;11401;50.792;4.352;2023-08-17T08:49:21;11.77;;;6.43;;
22468;SDS011;11401;50.792;4.352;2023-08-17T08:51:50;11.23;;;5.88;;
22468;SDS011;11401;50.792;4.352;2023-08-17T08:54:21;8.73;;;5.90;;
22468;SDS011;11401;50.792;4.352;2023-08-17T08:56:51;11.85;;;5.45;;
22468;SDS011;11401;50.792;4.352;2023-08-17T08:59:24;17.27;;;6.05;;
22468;SDS011;11401;50.792;4.352;2023-08-17T09:01:54;12.27;;;5.97;;
22468;SDS011;11401;50.792;4.352;2023-08-17T09:04:24;12.30;;;6.57;;
22468;SDS011;11401;50.792;4.352;2023-08-17T09:06:52;10.05;;;6.25;;
22468;SDS011;11401;50.792;4.352;2023-08-17T09:09:20;15.40;;;7.07;;
22468;SDS011;11401;50.792;4.352;2023-08-17T09:11:54;11.57;;;5.88;;
22468;SDS011;11401;50.792;4.352;2023-08-17T09:14:21;7.47;;;5.38;;
22468;SDS011;11401;50.792;4.352;2023-08-17T09:16:48;13.07;;;5.93;;
22468;SDS011;11401;50.792;4.352;2023-08-17T09:19:15;12.73;;;6.72;;
22468;SDS011;11401;50.792;4.352;2023-08-17T09:21:43;11.07;;;6.40;;
22468;SDS011;11401;50.792;4.352;2023-08-17T09:24:15;10.35;;;6.18;;
22468;SDS011;11401;50.792;4.352;2023-08-17T09:26:42;11.23;;;6.70;;
22468;SDS011;11401;50.792;4.352;2023-08-17T09:31:45;8.88;;;5.80;;
22468;SDS011;11401;50.792;4.352;2023-08-17T09:34:14;18.50;;;8.30;;
22468;SDS011;11401;50.792;4.352;2023-08-17T09:36:42;13.73;;;6.20;;
22468;SDS011;11401;50.792;4.352;2023-08-17T09:39:17;9.10;;;6.55;;
22468;SDS011;11401;50.792;4.352;2023-08-17T09:41:45;10.63;;;5.90;;
22468;SDS011;11401;50.792;4.352;2023-08-17T09:44:12;11.57;;;6.90;;
22468;SDS011;11401;50.792;4.352;2023-08-17T09:46:41;11.60;;;6.18;;
22468;SDS011;11401;50.792;4.352;2023-08-17T09:49:12;10.30;;;5.07;;
22468;SDS011;11401;50.792;4.352;2023-08-17T09:51:44;9.50;;;6.93;;
22468;SDS011;11401;50.792;4.352;2023-08-17T09:56:53;13.88;;;6.35;;
22468;SDS011;11401;50.792;4.352;2023-08-17T09:59:21;10.05;;;6.15;;
22468;SDS011;11401;50.792;4.352;2023-08-17T10:01:50;12.35;;;7.10;;
22468;SDS011;11401;50.792;4.352;2023-08-17T10:04:21;11.63;;;6.70;;
22468;SDS011;11401;50.792;4.352;2023-08-17T10:06:56;11.63;;;6.07;;
22468;SDS011;11401;50.792;4.352;2023-08-17T10:09:28;10.02;;;6.97;;
22468;SDS011;11401;50.792;4.352;2023-08-17T10:11:58;8.43;;;6.45;;
22468;SDS011;11401;50.792;4.352;2023-08-17T10:14:34;8.73;;;6.63;;
22468;SDS011;11401;50.792;4.352;2023-08-17T10:17:09;8.60;;;6.32;;
22468;SDS011;11401;50.792;4.352;2023-08-17T10:19:43;11.18;;;6.15;;
22468;SDS011;11401;50.792;4.352;2023-08-17T10:22:19;12.95;;;8.05;;
22468;SDS011;11401;50.792;4.352;2023-08-17T10:24:58;12.38;;;6.85;;
22468;SDS011;11401;50.792;4.352;2023-08-17T10:27:27;13.10;;;7.10;;
22468;SDS011;11401;50.792;4.352;2023-08-17T10:29:54;9.20;;;7.28;;
22468;SDS011;11401;50.792;4.352;2023-08-17T10:32:22;11.75;;;7.05;;
22468;SDS011;11401;50.792;4.352;2023-08-17T10:34:51;12.63;;;7.65;;
22468;SDS011;11401;50.792;4.352;2023-08-17T10:37:20;9.35;;;5.57;;
22468;SDS011;11401;50.792;4.352;2023-08-17T10:39:48;13.40;;;8.55;;
22468;SDS011;11401;50.792;4.352;2023-08-17T10:42:29;14.60;;;8.43;;
22468;SDS011;11401;50.792;4.352;2023-08-17T10:45:25;12.65;;;7.63;;
22468;SDS011;11401;50.792;4.352;2023-08-17T10:47:59;11.90;;;7.90;;
22468;SDS011;11401;50.792;4.352;2023-08-17T10:51:01;12.70;;;7.60;;
22468;SDS011;11401;50.792;4.352;2023-08-17T10:53:36;10.38;;;7.45;;
22468;SDS011;11401;50.792;4.352;2023-08-17T10:56:06;12.88;;;8.80;;
22468;SDS011;11401;50.792;4.352;2023-08-17T10:58:35;12.35;;;7.82;;
22468;SDS011;11401;50.792;4.352;2023-08-17T11:01:02;18.25;;;9.02;;
22468;SDS011;11401;50.792;4.352;2023-08-17T11:03:30;16.77;;;9.10;;
22468;SDS011;11401;50.792;4.352;2023-08-17T11:05:57;14.45;;;9.85;;
22468;SDS011;11401;50.792;4.352;2023-08-17T11:08:28;16.02;;;8.90;;
22468;SDS011;11401;50.792;4.352;2023-08-17T11:13:32;13.00;;;8.75;;
22468;SDS011;11401;50.792;4.352;2023-08-17T11:16:00;13.32;;;8.50;;
22468;SDS011;11401;50.792;4.352;2023-08-17T11:18:30;15.35;;;8.98;;
22468;SDS011;11401;50.792;4.352;2023-08-17T11:21:16;14.02;;;9.07;;
22468;SDS011;11401;50.792;4.352;2023-08-17T11:23:45;14.52;;;9.13;;
22468;SDS011;11401;50.792;4.352;2023-08-17T11:26:16;13.07;;;8.63;;
22468;SDS011;11401;50.792;4.352;2023-08-17T11:28:44;12.75;;;9.43;;
22468;SDS011;11401;50.792;4.352;2023-08-17T11:31:13;12.55;;;8.50;;
22468;SDS011;11401;50.792;4.352;2023-08-17T11:33:42;13.90;;;7.93;;
22468;SDS011;11401;50.792;4.352;2023-08-17T11:36:11;14.13;;;9.18;;
22468;SDS011;11401;50.792;4.352;2023-08-17T11:38:39;46.00;;;10.85;;
22468;SDS011;11401;50.792;4.352;2023-08-17T11:41:08;23.85;;;11.07;;
22468;SDS011;11401;50.792;4.352;2023-08-17T11:43:43;15.65;;;9.40;;
22468;SDS011;11401;50.792;4.352;2023-08-17T11:46:11;14.43;;;10.10;;
22468;SDS011;11401;50.792;4.352;2023-08-17T11:48:38;13.88;;;9.55;;
22468;SDS011;11401;50.792;4.352;2023-08-17T11:51:06;15.18;;;8.07;;
22468;SDS011;11401;50.792;4.352;2023-08-17T11:53:33;14.18;;;8.23;;
22468;SDS011;11401;50.792;4.352;2023-08-17T11:56:01;10.68;;;8.18;;
22468;SDS011;11401;50.792;4.352;2023-08-17T11:58:41;11.32;;;8.60;;
22468;SDS011;11401;50.792;4.352;2023-08-17T12:01:10;11.00;;;8.88;;
22468;SDS011;11401;50.792;4.352;2023-08-17T12:03:39;14.25;;;8.75;;
22468;SDS011;11401;50.792;4.352;2023-08-17T12:06:08;11.55;;;8.98;;
22468;SDS011;11401;50.792;4.352;2023-08-17T12:08:36;12.40;;;8.93;;
22468;SDS011;11401;50.792;4.352;2023-08-17T12:11:03;11.75;;;8.23;;
22468;SDS011;11401;50.792;4.352;2023-08-17T12:13:34;11.57;;;8.10;;
22468;SDS011;11401;50.792;4.352;2023-08-17T12:16:01;11.13;;;7.93;;
22468;SDS011;11401;50.792;4.352;2023-08-17T12:18:33;10.10;;;7.68;;
22468;SDS011;11401;50.792;4.352;2023-08-17T12:21:00;12.95;;;7.93;;
22468;SDS011;11401;50.792;4.352;2023-08-17T12:23:28;12.35;;;7.60;;
22468;SDS011;11401;50.792;4.352;2023-08-17T12:25:55;7.72;;;6.97;;
22468;SDS011;11401;50.792;4.352;2023-08-17T12:28:23;10.13;;;7.63;;
22468;SDS011;11401;50.792;4.352;2023-08-17T12:30:59;8.18;;;7.15;;
22468;SDS011;11401;50.792;4.352;2023-08-17T12:33:28;9.75;;;7.97;;
22468;SDS011;11401;50.792;4.352;2023-08-17T12:35:55;10.40;;;7.88;;
22468;SDS011;11401;50.792;4.352;2023-08-17T12:38:24;9.25;;;7.55;;
22468;SDS011;11401;50.792;4.352;2023-08-17T12:40:52;7.72;;;6.93;;
22468;SDS011;11401;50.792;4.352;2023-08-17T12:43:19;10.40;;;7.47;;
22468;SDS011;11401;50.792;4.352;2023-08-17T12:45:46;8.45;;;6.70;;
22468;SDS011;11401;50.792;4.352;2023-08-17T12:48:13;12.13;;;7.60;;
22468;SDS011;11401;50.792;4.352;2023-08-17T12:50:41;14.77;;;11.80;;
22468;SDS011;11401;50.792;4.352;2023-08-17T12:53:10;13.60;;;11.23;;
22468;SDS011;11401;50.792;4.352;2023-08-17T12:55:37;11.63;;;10.32;;
22468;SDS011;11401;50.792;4.352;2023-08-17T12:58:07;11.80;;;9.27;;
22468;SDS011;11401;50.792;4.352;2023-08-17T13:00:36;11.45;;;8.50;;
22468;SDS011;11401;50.792;4.352;2023-08-17T13:03:03;13.27;;;8.85;;
22468;SDS011;11401;50.792;4.352;2023-08-17T13:05:30;12.68;;;10.55;;
22468;SDS011;11401;50.792;4.352;2023-08-17T13:07:58;12.30;;;9.90;;
22468;SDS011;11401;50.792;4.352;2023-08-17T13:10:26;13.05;;;10.13;;
22468;SDS011;11401;50.792;4.352;2023-08-17T13:12:53;14.57;;;10.20;;
22468;SDS011;11401;50.792;4.352;2023-08-17T13:15:23;15.63;;;10.93;;
22468;SDS011;11401;50.792;4.352;2023-08-17T13:17:50;25.00;;;10.60;;
22468;SDS011;11401;50.792;4.352;2023-08-17T13:20:17;40.60;;;11.45;;
22468;SDS011;11401;50.792;4.352;2023-08-17T13:22:44;18.85;;;10.43;;
22468;SDS011;11401;50.792;4.352;2023-08-17T13:25:11;18.42;;;10.93;;
22468;SDS011;11401;50.792;4.352;2023-08-17T13:27:38;11.23;;;9.00;;
22468;SDS011;11401;50.792;4.352;2023-08-17T13:30:05;17.92;;;9.85;;
22468;SDS011;11401;50.792;4.352;2023-08-17T13:32:33;12.57;;;9.52;;
22468;SDS011;11401;50.792;4.352;2023-08-17T13:35:01;17.33;;;9.00;;
22468;SDS011;11401;50.792;4.352;2023-08-17T13:37:29;16.60;;;9.38;;
22468;SDS011;11401;50.792;4.352;2023-08-17T13:39:56;15.70;;;9.85;;
22468;SDS011;11401;50.792;4.352;2023-08-17T13:42:24;12.95;;;9.73;;
22468;SDS011;11401;50.792;4.352;2023-08-17T13:44:52;14.48;;;10.90;;
22468;SDS011;11401;50.792;4.352;2023-08-17T13:47:19;14.10;;;10.45;;
22468;SDS011;11401;50.792;4.352;2023-08-17T13:49:46;12.95;;;8.63;;
22468;SDS011;11401;50.792;4.352;2023-08-17T13:52:13;15.57;;;10.02;;
22468;SDS011;11401;50.792;4.352;2023-08-17T13:54:40;10.40;;;9.15;;
22468;SDS011;11401;50.792;4.352;2023-08-17T13:57:07;9.60;;;7.97;;
22468;SDS011;11401;50.792;4.352;2023-08-17T13:59:34;11.48;;;8.75;;
22468;SDS011;11401;50.792;4.352;2023-08-17T14:02:01;12.00;;;8.70;;
22468;SDS011;11401;50.792;4.352;2023-08-17T14:04:29;14.65;;;10.23;;
22468;SDS011;11401;50.792;4.352;2023-08-17T14:06:56;13.13;;;10.50;;
22468;SDS011;11401;50.792;4.352;2023-08-17T14:09:23;12.60;;;10.50;;
22468;SDS011;11401;50.792;4.352;2023-08-17T14:11:50;15.82;;;10.18;;
22468;SDS011;11401;50.792;4.352;2023-08-17T14:14:17;13.75;;;10.05;;
22468;SDS011;11401;50.792;4.352;2023-08-17T14:16:44;11.45;;;8.68;;
22468;SDS011;11401;50.792;4.352;2023-08-17T14:19:11;15.30;;;10.85;;
22468;SDS011;11401;50.792;4.352;2023-08-17T14:21:39;14.48;;;10.00;;
22468;SDS011;11401;50.792;4.352;2023-08-17T14:24:06;13.38;;;9.30;;
22468;SDS011;11401;50.792;4.352;2023-08-17T14:26:37;11.27;;;8.35;;
22468;SDS011;11401;50.792;4.352;2023-08-17T14:29:04;14.50;;;10.82;;
22468;SDS011;11401;50.792;4.352;2023-08-17T14:31:31;16.90;;;11.23;;
22468;SDS011;11401;50.792;4.352;2023-08-17T14:33:58;14.02;;;8.82;;
22468;SDS011;11401;50.792;4.352;2023-08-17T14:36:25;12.80;;;10.70;;
22468;SDS011;11401;50.792;4.352;2023-08-17T14:38:52;15.25;;;11.40;;
22468;SDS011;11401;50.792;4.352;2023-08-17T14:41:19;13.43;;;10.57;;
22468;SDS011;11401;50.792;4.352;2023-08-17T14:43:46;13.70;;;10.82;;
22468;SDS011;11401;50.792;4.352;2023-08-17T14:46:13;15.05;;;10.77;;
22468;SDS011;11401;50.792;4.352;2023-08-17T14:48:41;14.48;;;11.43;;
22468;SDS011;11401;50.792;4.352;2023-08-17T14:51:08;11.77;;;9.40;;
22468;SDS011;11401;50.792;4.352;2023-08-17T14:53:36;14.73;;;10.85;;
22468;SDS011;11401;50.792;4.352;2023-08-17T14:56:05;11.88;;;10.25;;
22468;SDS011;11401;50.792;4.352;2023-08-17T14:58:32;11.07;;;9.93;;